createdAt,value
2022-08-07T00:15:14.483Z,23.43
2022-08-07T00:35:14.504Z,23.43
2022-08-07T00:55:14.438Z,23.37
2022-08-07T01:15:14.540Z,23.31
2022-08-07T01:35:14.419Z,23.37
2022-08-07T01:55:14.347Z,23.37
2022-08-07T02:15:14.389Z,23.31
2022-08-07T02:35:14.311Z,23.50
2022-08-07T02:55:14.344Z,23.43
2022-08-07T03:15:14.285Z,23.06
2022-08-07T03:35:14.314Z,23.31
2022-08-07T03:55:14.264Z,23.37
2022-08-07T04:15:14.187Z,23.31
2022-08-07T04:35:14.209Z,23.37
2022-08-07T04:55:14.138Z,23.31
2022-08-07T05:15:14.171Z,23.25
2022-08-07T05:35:14.106Z,23.31
2022-08-07T05:55:14.165Z,23.18
2022-08-07T06:15:14.116Z,23.06
2022-08-07T06:35:14.061Z,23.06
2022-08-07T06:55:14.044Z,22.93
2022-08-07T07:15:13.974Z,23.00
2022-08-07T07:35:14.036Z,22.87
2022-08-07T07:55:13.971Z,23.06
2022-08-07T08:15:13.898Z,23.00
2022-08-07T08:35:13.915Z,23.12
2022-08-07T08:55:20.698Z,23.00
2022-08-07T09:15:13.882Z,23.12
2022-08-07T09:35:22.578Z,23.06
2022-08-07T09:55:13.766Z,23.06
2022-08-07T10:15:13.760Z,23.06
2022-08-07T10:35:13.681Z,23.12
2022-08-07T10:55:13.707Z,23.18
2022-08-07T11:15:13.629Z,23.18
2022-08-07T11:35:13.673Z,23.25
2022-08-07T11:55:13.588Z,23.25
2022-08-07T12:15:13.608Z,23.37
2022-08-07T12:35:13.533Z,23.37
2022-08-07T12:55:13.574Z,23.43
2022-08-07T13:15:13.484Z,23.50
2022-08-07T13:35:13.412Z,23.50
2022-08-07T13:55:13.436Z,23.50
2022-08-07T14:15:13.381Z,23.62
2022-08-07T14:35:13.435Z,23.56
2022-08-07T14:55:13.332Z,23.43
2022-08-07T15:15:13.277Z,23.50
2022-08-07T15:35:13.323Z,23.50
2022-08-07T15:55:13.250Z,23.43
2022-08-07T16:15:13.240Z,23.50
2022-08-07T16:35:16.693Z,23.56
2022-08-07T16:55:13.209Z,23.31
2022-08-07T17:15:13.143Z,23.43
2022-08-07T17:35:13.077Z,23.43
2022-08-07T17:55:13.135Z,23.37
2022-08-07T18:15:13.044Z,23.37
2022-08-07T18:35:12.979Z,23.43
2022-08-07T18:55:13.048Z,23.43
2022-08-07T19:15:12.951Z,23.37
2022-08-07T19:35:12.981Z,23.12
2022-08-07T19:55:12.921Z,23.25
2022-08-07T20:15:12.846Z,23.18
2022-08-07T20:35:12.880Z,23.18
2022-08-07T20:55:12.810Z,23.12
2022-08-07T21:15:12.843Z,23.31
2022-08-07T21:35:12.782Z,23.25
2022-08-07T21:55:12.704Z,23.25
2022-08-07T22:15:12.740Z,23.25
2022-08-07T22:35:12.710Z,23.06
2022-08-07T22:55:12.704Z,23.18
2022-08-07T23:15:12.649Z,23.12
2022-08-07T23:35:12.671Z,23.12
2022-08-07T23:55:12.605Z,23.12
